createdAt,value
2018-09-25T00:04:47.883Z,70.07
2018-09-25T00:09:47.392Z,72.02
2018-09-25T00:14:46.237Z,72.91
2018-09-25T00:19:45.614Z,74.08
2018-09-25T00:24:44.802Z,73.51
2018-09-25T00:29:44.294Z,74.82
2018-09-25T00:34:43.480Z,72.42
2018-09-25T00:39:42.242Z,73.92
2018-09-25T00:44:41.705Z,75.40
2018-09-25T00:49:42.497Z,76.38
2018-09-25T00:54:41.319Z,72.98
2018-09-25T00:59:41.513Z,72.50
2018-09-25T01:04:40.316Z,71.62
2018-09-25T01:09:40.181Z,72.13
2018-09-25T01:14:39.062Z,71.55
2018-09-25T01:19:38.488Z,71.44
2018-09-25T01:24:37.922Z,72.51
2018-09-25T01:29:37.245Z,77.43
2018-09-25T01:34:35.897Z,78.86
2018-09-25T01:39:34.752Z,79.77
2018-09-25T01:44:33.122Z,79.69
2018-09-25T01:49:31.701Z,79.08
2018-09-25T01:54:30.261Z,77.15
2018-09-25T01:59:28.846Z,75.77
2018-09-25T02:04:27.381Z,75.61
2018-09-25T02:09:26.059Z,73.46
2018-09-25T02:14:25.447Z,72.78
2018-09-25T02:19:24.261Z,71.32
2018-09-25T02:24:22.863Z,70.34
2018-09-25T02:29:21.425Z,69.68
2018-09-25T02:34:19.945Z,69.75
2018-09-25T02:39:18.793Z,69.38
2018-09-25T02:44:17.664Z,68.90
2018-09-25T02:49:16.211Z,68.83
2018-09-25T02:54:14.920Z,68.30
2018-09-25T02:59:13.671Z,68.06
2018-09-25T03:04:12.434Z,66.90
2018-09-25T03:09:13.313Z,66.61
2018-09-25T03:14:11.994Z,67.29
2018-09-25T03:19:10.965Z,66.85
2018-09-25T03:24:09.584Z,66.44
2018-09-25T03:29:08.111Z,66.29
2018-09-25T03:34:06.682Z,67.12
2018-09-25T03:39:05.196Z,65.38
2018-09-25T03:44:03.910Z,65.56
2018-09-25T03:49:02.567Z,65.26
2018-09-25T03:54:01.288Z,65.08
2018-09-25T03:59:01.132Z,65.62
2018-09-25T04:03:59.777Z,65.47
2018-09-25T04:08:58.252Z,65.21
2018-09-25T04:13:56.770Z,66.88
2018-09-25T04:18:55.326Z,65.15
2018-09-25T04:23:54.377Z,65.39
2018-09-25T04:28:52.925Z,66.40
2018-09-25T04:33:51.621Z,66.27
2018-09-25T04:38:50.476Z,66.18
2018-09-25T04:43:49.334Z,66.02
2018-09-25T04:48:47.991Z,63.57
2018-09-25T04:53:46.622Z,63.95
2018-09-25T04:58:45.227Z,65.61
2018-09-25T05:03:43.800Z,64.69
2018-09-25T05:08:42.435Z,66.01
2018-09-25T05:13:41.268Z,74.63
2018-09-25T05:18:39.940Z,63.63
2018-09-25T05:23:38.654Z,63.98
2018-09-25T05:28:37.069Z,72.88
2018-09-25T05:33:35.856Z,63.29
2018-09-25T05:38:34.292Z,63.93
2018-09-25T05:43:33.063Z,65.16
2018-09-25T05:48:31.806Z,63.49
2018-09-25T05:53:30.290Z,65.83
2018-09-25T05:58:28.992Z,63.24
2018-09-25T06:03:27.730Z,62.97
2018-09-25T06:08:26.370Z,62.80
2018-09-25T06:13:24.888Z,62.94
2018-09-25T06:18:23.348Z,62.77
2018-09-25T06:23:21.795Z,63.00
2018-09-25T06:28:20.396Z,62.55
2018-09-25T06:33:19.260Z,63.91
2018-09-25T06:38:18.041Z,61.39
2018-09-25T06:43:16.597Z,61.03
2018-09-25T06:48:15.196Z,60.42
2018-09-25T06:53:13.832Z,60.72
2018-09-25T06:58:12.351Z,60.05
2018-09-25T07:03:10.857Z,60.29
2018-09-25T07:08:09.962Z,59.84
2018-09-25T07:13:08.578Z,59.41
2018-09-25T07:18:08.056Z,58.86
2018-09-25T07:23:06.533Z,58.57
2018-09-25T07:28:05.367Z,57.31
2018-09-25T07:33:04.023Z,57.59
2018-09-25T07:38:02.946Z,57.40
2018-09-25T07:43:01.446Z,57.41
2018-09-25T07:48:00.119Z,56.55
2018-09-25T07:52:58.950Z,56.96
2018-09-25T07:57:57.763Z,56.11
2018-09-25T08:02:56.425Z,55.51
2018-09-25T08:07:55.033Z,54.75
2018-09-25T08:12:53.737Z,55.13
2018-09-25T08:17:52.381Z,53.35
2018-09-25T08:22:50.999Z,53.98
2018-09-25T08:27:49.904Z,53.96
2018-09-25T08:32:48.567Z,54.00
2018-09-25T08:37:47.275Z,53.05
2018-09-25T08:42:46.028Z,52.76
2018-09-25T08:47:44.845Z,52.92
2018-09-25T08:52:43.528Z,51.15
2018-09-25T08:57:42.237Z,51.11
2018-09-25T09:02:40.997Z,51.63
2018-09-25T09:07:39.563Z,49.72
2018-09-25T09:12:38.293Z,48.92
2018-09-25T09:17:37.188Z,48.61
2018-09-25T09:22:35.733Z,48.07
2018-09-25T09:27:34.220Z,47.25
2018-09-25T09:32:32.746Z,47.69
2018-09-25T09:37:31.573Z,45.52
2018-09-25T09:42:30.367Z,46.33
2018-09-25T09:47:29.011Z,46.04
2018-09-25T09:52:27.774Z,44.31
2018-09-25T09:57:26.293Z,45.78
2018-09-25T10:02:24.901Z,44.08
2018-09-25T10:07:23.458Z,43.44
2018-09-25T10:12:22.193Z,43.59
2018-09-25T10:17:20.769Z,43.36
2018-09-25T10:22:19.342Z,42.69
2018-09-25T10:27:17.984Z,43.16
2018-09-25T10:32:16.761Z,42.53
2018-09-25T10:37:15.456Z,41.50
2018-09-25T10:42:14.118Z,40.92
2018-09-25T10:47:12.720Z,40.93
2018-09-25T10:52:11.220Z,43.02
2018-09-25T10:57:10.060Z,41.42
2018-09-25T11:02:08.485Z,40.01
2018-09-25T11:07:07.376Z,40.03
2018-09-25T11:12:06.090Z,40.40
2018-09-25T11:17:05.020Z,40.17
2018-09-25T11:22:03.808Z,39.23
2018-09-25T11:27:02.473Z,40.21
2018-09-25T11:32:01.095Z,40.82
2018-09-25T11:36:59.761Z,40.17
2018-09-25T11:41:58.709Z,39.07
2018-09-25T11:46:57.518Z,38.69
2018-09-25T11:51:56.088Z,38.62
2018-09-25T11:56:54.775Z,39.59
2018-09-25T12:01:53.398Z,39.37
2018-09-25T12:06:51.990Z,39.07
2018-09-25T12:11:50.613Z,38.56
2018-09-25T12:16:49.344Z,40.21
2018-09-25T12:21:48.026Z,41.27
2018-09-25T12:26:46.811Z,39.52
2018-09-25T12:31:45.555Z,39.03
2018-09-25T12:36:44.208Z,38.13
2018-09-25T12:41:43.063Z,36.99
2018-09-25T12:46:41.607Z,35.62
2018-09-25T12:51:40.993Z,34.79
2018-09-25T12:56:39.698Z,35.53
2018-09-25T13:01:38.352Z,35.87
2018-09-25T13:06:36.902Z,36.45
2018-09-25T13:11:35.563Z,37.58
2018-09-25T13:16:34.074Z,37.87
2018-09-25T13:21:32.703Z,37.17
2018-09-25T13:26:31.412Z,38.96
2018-09-25T13:31:29.861Z,38.54
2018-09-25T13:36:28.753Z,39.42
2018-09-25T13:41:27.612Z,40.85
2018-09-25T13:46:26.345Z,39.96
2018-09-25T13:51:24.998Z,40.83
2018-09-25T13:56:23.708Z,39.93
2018-09-25T14:01:22.285Z,39.93
2018-09-25T14:06:20.816Z,39.86
2018-09-25T14:11:19.428Z,38.63
2018-09-25T14:16:17.973Z,38.26
2018-09-25T14:21:16.692Z,39.24
2018-09-25T14:26:15.416Z,38.91
2018-09-25T14:31:14.148Z,39.65
2018-09-25T14:36:13.266Z,39.18
2018-09-25T14:41:12.434Z,37.98
2018-09-25T14:46:10.886Z,38.25
2018-09-25T14:51:09.729Z,38.15
2018-09-25T14:56:08.466Z,38.59
2018-09-25T15:01:07.434Z,38.72
2018-09-25T15:06:06.020Z,38.80
2018-09-25T15:11:04.671Z,38.76
2018-09-25T15:16:07.030Z,39.25
2018-09-25T15:21:05.593Z,38.90
2018-09-25T15:26:04.398Z,38.29
2018-09-25T15:31:03.052Z,38.28
2018-09-25T15:36:01.631Z,38.70
2018-09-25T15:41:00.582Z,39.09
2018-09-25T15:45:59.233Z,40.61
2018-09-25T15:50:58.343Z,39.35
2018-09-25T15:55:57.189Z,39.45
2018-09-25T16:00:55.989Z,41.07
2018-09-25T16:05:54.881Z,39.42
2018-09-25T16:10:53.651Z,39.54
2018-09-25T16:15:59.791Z,38.86
2018-09-25T16:20:58.298Z,38.37
2018-09-25T16:25:56.987Z,38.88
2018-09-25T16:30:55.804Z,41.69
2018-09-25T16:35:54.437Z,39.62
2018-09-25T16:40:53.011Z,39.94
2018-09-25T16:45:51.593Z,38.78
2018-09-25T16:50:50.679Z,38.91
2018-09-25T16:55:49.461Z,39.59
2018-09-25T17:00:48.416Z,39.34
2018-09-25T17:05:47.189Z,39.25
2018-09-25T17:10:46.141Z,40.33
2018-09-25T17:15:45.009Z,40.48
2018-09-25T17:20:44.658Z,40.34
2018-09-25T17:25:43.492Z,40.89
2018-09-25T17:30:42.256Z,42.92
2018-09-25T17:35:41.469Z,44.84
2018-09-25T17:40:40.922Z,45.41
2018-09-25T17:45:40.572Z,45.87
2018-09-25T17:50:39.830Z,46.62
2018-09-25T17:55:42.420Z,46.99
2018-09-25T18:00:47.675Z,47.95
2018-09-25T18:05:49.980Z,48.85
2018-09-25T18:10:49.620Z,50.18
2018-09-25T18:15:57.609Z,50.49
2018-09-25T18:20:58.467Z,50.53
2018-09-25T18:25:59.579Z,51.61
2018-09-25T18:30:58.751Z,52.09
2018-09-25T18:36:00.043Z,52.54
2018-09-25T18:41:03.146Z,53.51
2018-09-25T18:46:05.072Z,54.31
2018-09-25T18:51:05.923Z,55.00
2018-09-25T18:56:05.364Z,55.71
2018-09-25T19:01:04.937Z,56.05
2018-09-25T19:06:07.646Z,56.81
2018-09-25T19:11:08.269Z,57.92
2018-09-25T19:16:13.321Z,58.29
2018-09-25T19:21:14.780Z,58.63
2018-09-25T19:26:13.616Z,59.53
2018-09-25T19:31:12.165Z,59.02
2018-09-25T19:36:11.052Z,59.55
2018-09-25T19:41:10.836Z,58.92
2018-09-25T19:46:09.527Z,59.20
2018-09-25T19:51:08.245Z,59.70
2018-09-25T19:56:07.113Z,59.66
2018-09-25T20:01:05.855Z,56.71
2018-09-25T20:06:04.693Z,54.12
2018-09-25T20:11:08.345Z,53.36
2018-09-25T20:16:09.404Z,53.69
2018-09-25T20:21:08.340Z,55.85
2018-09-25T20:26:07.219Z,55.55
2018-09-25T20:31:05.858Z,55.55
2018-09-25T20:36:04.725Z,56.02
2018-09-25T20:41:03.421Z,56.51
2018-09-25T20:46:02.058Z,56.16
2018-09-25T20:51:00.766Z,56.26
2018-09-25T20:55:59.621Z,56.69
2018-09-25T21:00:58.223Z,55.94
2018-09-25T21:05:56.725Z,56.49
2018-09-25T21:10:55.353Z,55.98
2018-09-25T21:15:54.000Z,55.38
2018-09-25T21:20:52.687Z,53.67
2018-09-25T21:25:51.416Z,52.48
2018-09-25T21:30:50.071Z,52.75
2018-09-25T21:35:48.884Z,51.92
2018-09-25T21:40:47.596Z,51.77
2018-09-25T21:45:46.328Z,52.57
2018-09-25T21:50:45.169Z,53.62
2018-09-25T21:55:44.050Z,54.89
2018-09-25T22:00:42.908Z,55.86
2018-09-25T22:05:41.501Z,56.05
2018-09-25T22:10:40.107Z,56.13
2018-09-25T22:15:38.683Z,56.01
2018-09-25T22:20:37.390Z,55.61
2018-09-25T22:25:36.098Z,55.77
2018-09-25T22:30:35.011Z,56.79
2018-09-25T22:35:33.819Z,54.58
2018-09-25T22:40:32.420Z,55.10
2018-09-25T22:45:31.160Z,54.14
2018-09-25T22:50:29.915Z,55.87
2018-09-25T22:55:28.707Z,56.43
2018-09-25T23:00:27.725Z,55.69
2018-09-25T23:05:26.399Z,55.14
2018-09-25T23:10:25.032Z,54.54
2018-09-25T23:15:23.764Z,55.04
2018-09-25T23:20:23.597Z,53.86
2018-09-25T23:25:22.222Z,53.96
2018-09-25T23:30:20.742Z,52.76
2018-09-25T23:35:19.321Z,52.25
2018-09-25T23:40:19.945Z,53.24
2018-09-25T23:45:21.584Z,51.42
2018-09-25T23:50:20.191Z,52.27
2018-09-25T23:55:24.129Z,51.84
